Time;durP1;ratioP1;P1;durP2;ratioP2;P2;SDS_P1;SDS_P2;PMS_P1;PMS_P2;Temp;Humidity;BMP_temperature;BMP_pressure;BME280_temperature;BME280_humidity;BME280_pressure;Samples;Min_cycle;Max_cycle;Signal;HPM_P1;HPM_P2
2021/10/11 00:01:35;;;;;;;24.20;14.48;;;;;;;5.47;75.50;97108.31;5069998;28;20056;-72
2021/10/11 00:04:02;;;;;;;26.50;14.30;;;;;;;5.46;75.87;97107.50;5069103;28;20273;-73
2021/10/11 00:06:28;;;;;;;25.33;14.23;;;;;;;5.43;75.55;97110.75;5070151;28;20392;-73
2021/10/11 00:08:55;;;;;;;24.33;13.93;;;;;;;5.40;75.46;97113.16;5069071;28;20049;-71
2021/10/11 00:11:21;;;;;;;27.98;14.68;;;;;;;5.37;75.79;97109.09;5069899;28;20048;-73
2021/10/11 00:13:49;;;;;;;24.45;14.88;;;;;;;5.40;76.03;97113.97;5070063;28;20049;-73
2021/10/11 00:16:16;;;;;;;24.20;13.57;;;;;;;5.38;75.49;97110.72;5069807;28;20048;-71
2021/10/11 00:18:43;;;;;;;23.02;13.48;;;;;;;5.35;75.46;97111.25;5068690;28;20059;-71
2021/10/11 00:21:11;;;;;;;24.63;13.43;;;;;;;5.30;74.83;97108.53;5069371;28;20055;-72
2021/10/11 00:23:37;;;;;;;25.08;13.85;;;;;;;5.25;74.61;97105.81;5069224;28;20049;-71
2021/10/11 00:26:04;;;;;;;21.13;13.60;;;;;;;5.23;74.67;97108.00;5069015;28;20060;-71
2021/10/11 00:28:30;;;;;;;25.65;13.80;;;;;;;5.19;74.81;97104.19;5069315;28;20048;-71
2021/10/11 00:30:58;;;;;;;24.70;14.48;;;;;;;5.18;75.19;97106.06;5069106;28;20048;-71
2021/10/11 00:33:24;;;;;;;25.27;13.45;;;;;;;5.16;75.70;97102.00;5069035;28;20052;-71
2021/10/11 00:35:51;;;;;;;24.30;13.80;;;;;;;5.14;75.32;97099.56;5068858;28;20048;-71
2021/10/11 00:38:17;;;;;;;25.15;13.15;;;;;;;5.10;75.30;97093.06;5069318;28;20041;-72
2021/10/11 00:40:44;;;;;;;22.85;13.23;;;;;;;5.14;74.84;97098.78;5068652;28;20044;-73
2021/10/11 00:43:10;;;;;;;25.00;14.27;;;;;;;5.15;74.27;97090.41;5069115;28;20052;-71
2021/10/11 00:45:37;;;;;;;21.83;13.40;;;;;;;5.06;74.08;97102.78;5069112;28;20055;-71
2021/10/11 00:48:05;;;;;;;20.75;12.48;;;;;;;4.94;74.45;97100.31;5068658;28;20052;-71
2021/10/11 00:50:32;;;;;;;23.35;13.40;;;;;;;4.91;74.88;97098.16;5068462;28;20045;-72
2021/10/11 00:52:58;;;;;;;22.02;13.05;;;;;;;4.95;74.41;97091.13;5068670;28;20048;-71
2021/10/11 00:55:25;;;;;;;22.67;13.05;;;;;;;4.90;75.24;97087.59;5068747;28;20055;-71
2021/10/11 00:57:51;;;;;;;23.90;13.70;;;;;;;4.86;75.06;97097.31;5066052;28;20044;-72
2021/10/11 01:00:19;;;;;;;24.10;13.55;;;;;;;4.81;75.28;97094.59;5068791;28;20499;-71
2021/10/11 01:02:46;;;;;;;22.73;12.82;;;;;;;4.79;75.15;97094.84;5067984;28;20048;-72
2021/10/11 01:05:13;;;;;;;21.55;12.95;;;;;;;4.78;75.59;97089.72;5068557;28;20063;-71
2021/10/11 01:07:40;;;;;;;24.45;13.57;;;;;;;4.73;75.23;97090.50;5068381;28;20048;-72
2021/10/11 01:10:07;;;;;;;23.50;13.27;;;;;;;4.66;74.97;97084.53;5068296;28;20044;-72
2021/10/11 01:12:33;;;;;;;23.98;13.55;;;;;;;4.64;75.38;97089.34;5068518;28;20053;-72
2021/10/11 01:15:00;;;;;;;27.00;14.63;;;;;;;4.64;75.95;97089.34;5068388;28;20061;-72
2021/10/11 01:17:26;;;;;;;23.58;13.85;;;;;;;4.66;76.74;97092.63;5068026;28;20055;-72
2021/10/11 01:19:56;;;;;;;22.77;13.20;;;;;;;4.67;76.34;97095.06;5067915;28;20049;-72
2021/10/11 01:22:34;;;;;;;22.17;12.88;;;;;;;4.73;75.58;97093.19;5068285;28;20055;-72
2021/10/11 01:25:00;;;;;;;21.55;13.27;;;;;;;4.73;75.23;97087.78;5068000;28;20048;-71
2021/10/11 01:27:28;;;;;;;19.92;11.68;;;;;;;4.72;75.07;97091.56;5067962;28;20048;-72
2021/10/11 01:29:55;;;;;;;23.27;12.85;;;;;;;4.73;74.93;97087.78;5067693;28;20053;-72
2021/10/11 01:32:21;;;;;;;24.15;13.80;;;;;;;4.69;75.46;97086.69;5064213;28;20048;-71
2021/10/11 01:34:48;;;;;;;24.65;13.93;;;;;;;4.66;75.86;97085.34;5067887;28;20044;-72
2021/10/11 01:37:16;;;;;;;23.45;13.38;;;;;;;4.63;75.30;97082.34;5067335;28;20051;-72
2021/10/11 01:39:43;;;;;;;21.33;13.07;;;;;;;4.66;75.28;97084.53;5068131;28;20056;-72
2021/10/11 01:42:10;;;;;;;26.38;13.48;;;;;;;4.64;75.84;97083.97;5067140;28;20040;-71
2021/10/11 01:44:37;;;;;;;27.25;14.43;;;;;;;4.64;75.92;97075.88;5068546;28;20051;-72
2021/10/11 01:47:04;;;;;;;30.63;15.85;;;;;;;4.65;76.16;97082.91;5067022;28;20056;-72
2021/10/11 01:49:31;;;;;;;25.55;13.98;;;;;;;4.63;76.35;97074.25;5068323;28;20505;-71
2021/10/11 01:51:57;;;;;;;27.65;13.63;;;;;;;4.63;75.98;97076.94;5067525;28;20075;-73
2021/10/11 01:54:25;;;;;;;26.63;13.20;;;;;;;4.63;75.82;97074.25;5067353;28;20049;-72
2021/10/11 01:56:52;;;;;;;27.45;13.27;;;;;;;4.57;75.08;97070.72;5067284;28;20048;-71
2021/10/11 01:59:18;;;;;;;28.05;14.27;;;;;;;4.50;74.60;97069.34;5065866;28;20515;-72
2021/10/11 02:01:45;;;;;;;27.73;14.18;;;;;;;4.41;75.00;97064.44;5067719;28;20045;-74
2021/10/11 02:04:11;;;;;;;26.52;14.65;;;;;;;4.34;75.42;97063.88;5066166;28;20601;-71
2021/10/11 02:06:38;;;;;;;23.08;13.68;;;;;;;4.32;75.37;97070.56;5068112;28;20055;-72
2021/10/11 02:09:04;;;;;;;23.15;13.25;;;;;;;4.27;75.25;97070.53;5066421;28;20048;-73
2021/10/11 02:11:32;;;;;;;22.98;13.13;;;;;;;4.23;75.47;97070.28;5068161;28;20048;-73
2021/10/11 02:13:58;;;;;;;21.85;13.02;;;;;;;4.21;75.58;97063.50;5066914;28;20044;-72
2021/10/11 02:16:25;;;;;;;25.63;14.48;;;;;;;4.20;75.19;97070.78;5067383;28;20048;-71
2021/10/11 02:18:51;;;;;;;22.98;13.43;;;;;;;4.16;75.50;97067.78;5066696;28;20048;-72
2021/10/11 02:21:18;;;;;;;26.67;13.75;;;;;;;4.16;76.17;97066.97;5066996;28;20040;-73
2021/10/11 02:23:46;;;;;;;23.98;13.05;;;;;;;4.18;76.65;97070.22;5067356;28;20045;-72
2021/10/11 02:26:12;;;;;;;22.25;13.13;;;;;;;4.19;75.41;97063.75;5067130;28;20064;-72
2021/10/11 02:28:40;;;;;;;23.27;12.70;;;;;;;4.25;75.49;97070.00;5067176;28;20044;-71
2021/10/11 02:31:06;;;;;;;25.67;13.45;;;;;;;4.24;75.97;97074.59;5066347;28;20056;-72
2021/10/11 02:33:33;;;;;;;26.88;13.93;;;;;;;4.20;76.53;97078.84;5067726;28;20708;-71
2021/10/11 02:36:00;;;;;;;21.05;12.57;;;;;;;4.20;76.71;97084.25;5066811;28;20063;-72
2021/10/11 02:38:26;;;;;;;24.55;15.20;;;;;;;4.21;76.61;97085.88;5066955;28;20037;-72
2021/10/11 02:40:53;;;;;;;22.85;12.27;;;;;;;4.24;76.48;97090.75;5067008;28;20049;-71
2021/10/11 02:43:19;;;;;;;23.17;13.65;;;;;;;4.27;74.98;97090.22;5066923;28;20415;-71
2021/10/11 02:45:47;;;;;;;22.65;13.57;;;;;;;4.27;75.42;97084.03;5066907;28;20075;-71
2021/10/11 02:48:13;;;;;;;26.95;13.18;;;;;;;4.24;74.47;97089.94;5066421;28;20048;-71
2021/10/11 02:50:40;;;;;;;30.25;13.68;;;;;;;4.16;74.54;97089.34;5067201;28;20045;-71
2021/10/11 02:53:06;;;;;;;25.00;13.18;;;;;;;4.15;75.64;97087.72;5066141;28;20048;-71
2021/10/11 02:55:33;;;;;;;24.27;13.48;;;;;;;4.20;75.82;97086.94;5067240;28;20049;-71
2021/10/11 02:57:59;;;;;;;24.73;14.25;;;;;;;4.18;75.92;97086.41;5065714;28;20061;-71
2021/10/11 03:00:26;;;;;;;21.55;12.80;;;;;;;4.19;75.49;97082.63;5066962;28;20052;-72
2021/10/11 03:02:53;;;;;;;18.95;12.27;;;;;;;4.19;75.94;97082.63;5066163;28;20056;-72
2021/10/11 03:05:20;;;;;;;21.70;12.75;;;;;;;4.15;76.11;97090.41;5067008;28;20067;-72
2021/10/11 03:07:46;;;;;;;21.65;12.07;;;;;;;4.15;76.15;97081.53;5066549;28;20057;-72
2021/10/11 03:10:13;;;;;;;25.73;14.25;;;;;;;4.11;76.24;97086.59;5066494;28;20515;-71
2021/10/11 03:12:40;;;;;;;22.08;12.35;;;;;;;4.12;76.24;97082.03;5066796;28;20059;-71
2021/10/11 03:15:08;;;;;;;21.98;13.57;;;;;;;4.10;76.25;97086.88;5068809;28;20052;-71
2021/10/11 03:17:34;;;;;;;24.27;12.88;;;;;;;4.10;76.23;97073.41;5070760;28;20423;-72
2021/10/11 03:20:02;;;;;;;22.15;12.57;;;;;;;4.08;76.32;97075.56;5069725;28;20045;-73
2021/10/11 03:22:29;;;;;;;21.40;12.63;;;;;;;4.10;76.06;97084.19;5070859;28;20056;-71
2021/10/11 03:24:55;;;;;;;20.23;12.57;;;;;;;4.12;75.87;97080.16;5070032;28;20048;-72
2021/10/11 03:27:22;;;;;;;21.52;12.20;;;;;;;4.19;75.68;97083.44;5070160;28;20514;-71
2021/10/11 03:29:49;;;;;;;22.27;12.52;;;;;;;4.18;75.83;97086.41;5070112;28;20052;-71
2021/10/11 03:32:15;;;;;;;20.13;11.85;;;;;;;4.15;75.69;97084.22;5069706;28;20071;-72
2021/10/11 03:34:42;;;;;;;22.13;12.45;;;;;;;4.01;75.79;97085.72;5070286;28;20053;-71
2021/10/11 03:37:10;;;;;;;21.50;12.55;;;;;;;3.87;76.15;97083.47;5069424;28;20415;-71
2021/10/11 03:39:36;;;;;;;23.15;12.27;;;;;;;3.83;76.77;97093.13;5070515;28;20041;-71
2021/10/11 03:42:03;;;;;;;28.45;14.27;;;;;;;3.79;76.63;97093.91;5069749;28;20051;-72
2021/10/11 03:44:30;;;;;;;24.10;13.13;;;;;;;3.77;77.63;97096.84;5070808;28;20514;-72
2021/10/11 03:46:56;;;;;;;20.77;12.52;;;;;;;3.80;77.89;97096.31;5069368;28;20052;-72
2021/10/11 03:49:23;;;;;;;23.35;12.45;;;;;;;3.83;77.40;97090.44;5070290;28;20075;-72
2021/10/11 03:51:49;;;;;;;23.35;12.68;;;;;;;3.81;77.61;97087.19;5069542;28;20040;-72
2021/10/11 03:54:17;;;;;;;22.27;12.68;;;;;;;3.80;77.38;97090.13;5067451;28;20052;-72
2021/10/11 03:56:44;;;;;;;22.67;13.15;;;;;;;3.81;77.34;97092.59;5049277;28;20063;-72
2021/10/11 03:59:11;;;;;;;24.52;13.15;;;;;;;3.78;76.92;97082.31;5064988;28;20610;-72
2021/10/11 04:01:38;;;;;;;23.90;12.52;;;;;;;3.73;76.19;97084.97;5069728;28;20044;-72
2021/10/11 04:04:06;;;;;;;21.27;12.48;;;;;;;3.71;76.34;97080.88;5068710;28;20485;-72
2021/10/11 04:06:32;;;;;;;20.80;12.18;;;;;;;3.69;76.61;97083.84;5070347;28;20225;-72
2021/10/11 04:09:00;;;;;;;25.15;12.60;;;;;;;3.67;76.68;97091.38;5069124;28;20090;-72
2021/10/11 04:11:30;;;;;;;20.92;12.23;;;;;;;3.65;76.43;97082.72;5069610;28;20060;-72
2021/10/11 04:13:57;;;;;;;21.67;11.40;;;;;;;3.65;75.97;97082.72;5069036;28;20552;-72
2021/10/11 04:16:23;;;;;;;25.13;12.98;;;;;;;3.60;76.38;97085.38;5068831;28;20055;-72
2021/10/11 04:18:49;;;;;;;24.65;12.55;;;;;;;3.58;76.13;97093.72;5068902;28;20450;-72
2021/10/11 04:21:16;;;;;;;20.10;11.32;;;;;;;3.55;75.51;97094.25;5069063;28;20048;-72
2021/10/11 04:23:44;;;;;;;19.13;11.73;;;;;;;3.52;75.88;97100.13;5069274;28;20047;-72
2021/10/11 04:26:12;;;;;;;20.42;12.38;;;;;;;3.51;75.96;97097.69;5067887;28;20052;-72
2021/10/11 04:28:39;;;;;;;19.90;11.65;;;;;;;3.55;75.67;97102.31;5069151;28;20064;-72
2021/10/11 04:31:07;;;;;;;20.95;11.25;;;;;;;3.55;75.75;97101.47;5068341;28;20079;-73
2021/10/11 04:33:33;;;;;;;21.67;11.85;;;;;;;3.55;75.71;97098.78;5069665;28;20097;-72
2021/10/11 04:36:00;;;;;;;20.00;12.25;;;;;;;3.61;76.55;97100.47;5068514;28;20044;-72
2021/10/11 04:38:27;;;;;;;19.40;10.90;;;;;;;3.60;76.72;97099.69;5069230;28;20040;-72
2021/10/11 04:40:53;;;;;;;22.45;11.00;;;;;;;3.59;76.42;97099.91;5068759;28;20527;-72
2021/10/11 04:43:20;;;;;;;20.08;11.63;;;;;;;3.59;76.36;97105.28;5068562;28;20443;-71
2021/10/11 04:45:47;;;;;;;17.17;10.93;;;;;;;3.58;75.89;97114.44;5068875;28;20037;-72
2021/10/11 04:48:14;;;;;;;22.30;11.35;;;;;;;3.63;75.92;97109.09;5068346;28;20048;-72
2021/10/11 04:50:41;;;;;;;20.55;10.43;;;;;;;3.59;75.33;97105.28;5069349;28;20068;-72
2021/10/11 04:53:09;;;;;;;25.98;14.07;;;;;;;3.53;75.23;97104.44;5068202;28;20052;-72
2021/10/11 04:55:35;;;;;;;23.50;11.73;;;;;;;3.51;75.50;97097.69;5069537;28;20404;-72
2021/10/11 04:58:02;;;;;;;21.25;12.02;;;;;;;3.53;75.96;97098.25;5066336;28;20049;-73
2021/10/11 05:00:29;;;;;;;20.27;12.10;;;;;;;3.54;76.29;97097.16;5069581;28;20132;-72
2021/10/11 05:02:57;;;;;;;24.27;12.60;;;;;;;3.56;76.04;97089.66;5068248;28;20057;-72
2021/10/11 05:05:23;;;;;;;20.92;11.15;;;;;;;3.57;76.00;97091.28;5068547;28;20041;-72
2021/10/11 05:07:50;;;;;;;21.88;11.50;;;;;;;3.54;75.98;97083.69;5068276;28;20058;-72
2021/10/11 05:10:16;;;;;;;21.83;11.73;;;;;;;3.55;76.26;97088.00;5067956;28;20068;-71
2021/10/11 05:12:43;;;;;;;23.40;12.40;;;;;;;3.57;76.16;97081.31;5068375;28;20071;-72
2021/10/11 05:15:10;;;;;;;20.63;11.63;;;;;;;3.56;75.88;97081.59;5067721;28;20059;-71
2021/10/11 05:17:36;;;;;;;20.13;11.85;;;;;;;3.56;75.79;97073.50;5068762;28;20041;-72
2021/10/11 05:20:06;;;;;;;19.85;11.38;;;;;;;3.57;76.02;97080.50;5067076;28;20040;-71
2021/10/11 05:22:32;;;;;;;23.65;12.85;;;;;;;3.55;76.22;97067.31;5068239;28;20052;-72
2021/10/11 05:24:59;;;;;;;21.75;12.45;;;;;;;3.57;76.41;97080.50;5067679;28;20526;-71
2021/10/11 05:27:25;;;;;;;19.70;12.25;;;;;;;3.55;75.98;97088.84;5067820;28;20045;-72
2021/10/11 05:29:52;;;;;;;21.48;11.23;;;;;;;3.61;75.81;97087.03;5067864;28;20055;-71
2021/10/11 05:32:19;;;;;;;22.35;12.23;;;;;;;3.63;76.08;97092.94;5067301;28;20055;-71
2021/10/11 05:34:46;;;;;;;23.08;12.43;;;;;;;3.60;76.19;97102.38;5067804;28;20565;-71
2021/10/11 05:37:14;;;;;;;23.95;11.70;;;;;;;3.60;76.20;97112.28;5066349;28;20068;-71
2021/10/11 05:39:40;;;;;;;20.40;10.75;;;;;;;3.61;75.47;97109.38;5068093;28;20059;-74
2021/10/11 05:42:08;;;;;;;19.98;11.43;;;;;;;3.61;75.73;97106.69;5066433;28;20056;-73
2021/10/11 05:44:35;;;;;;;22.13;11.10;;;;;;;3.62;75.45;97119.06;5068318;28;20495;-74
2021/10/11 05:47:01;;;;;;;18.55;10.60;;;;;;;3.61;75.36;97119.34;5066514;28;20052;-74
2021/10/11 05:49:28;;;;;;;18.85;11.27;;;;;;;3.63;75.43;97122.56;5067929;28;20044;-75
2021/10/11 05:51:55;;;;;;;18.10;11.50;;;;;;;3.55;75.39;97115.78;5067260;28;20049;-75
2021/10/11 05:54:23;;;;;;;19.77;10.32;;;;;;;3.53;76.33;97117.09;5067125;28;20324;-75
2021/10/11 05:56:49;;;;;;;18.00;10.20;;;;;;;3.53;76.57;97111.69;5067147;28;20068;-75
2021/10/11 05:59:16;;;;;;;16.20;9.90;;;;;;;3.53;76.51;97111.69;5066676;28;20044;-75
2021/10/11 06:01:42;;;;;;;19.27;10.05;;;;;;;3.55;75.67;97109.56;5067325;28;20061;-75
2021/10/11 06:04:09;;;;;;;20.55;10.23;;;;;;;3.56;76.11;97116.59;5066234;28;20495;-76
2021/10/11 06:06:35;;;;;;;16.90;10.10;;;;;;;3.57;76.30;97118.22;5067909;28;20415;-75
2021/10/11 06:09:02;;;;;;;17.55;10.27;;;;;;;3.56;76.10;97116.59;5066332;28;20512;-74
2021/10/11 06:11:30;;;;;;;18.58;9.55;;;;;;;3.59;76.79;97113.38;5067705;28;20048;-75
2021/10/11 06:13:56;;;;;;;17.17;9.77;;;;;;;3.62;76.96;97120.97;5066864;28;20040;-75
2021/10/11 06:16:22;;;;;;;17.27;9.98;;;;;;;3.57;76.73;97112.81;5067114;28;20056;-75
2021/10/11 06:18:49;;;;;;;18.60;10.93;;;;;;;3.64;76.92;97114.22;5066735;28;20059;-75
2021/10/11 06:21:16;;;;;;;17.95;9.85;;;;;;;3.71;76.81;97103.28;5066711;28;20040;-76
2021/10/11 06:23:42;;;;;;;26.45;10.98;;;;;;;3.75;76.44;97093.59;5067254;28;20044;-75
2021/10/11 06:26:08;;;;;;;19.20;10.55;;;;;;;3.80;76.72;97093.63;5066342;28;20431;-75
2021/10/11 06:28:36;;;;;;;16.15;9.63;;;;;;;3.88;76.69;97098.56;5067189;28;20048;-75
2021/10/11 06:31:03;;;;;;;17.80;10.23;;;;;;;3.92;76.45;97094.28;5065007;28;20052;-73
2021/10/11 06:33:29;;;;;;;17.20;9.38;;;;;;;3.92;76.00;97083.50;5067390;28;20052;-75
2021/10/11 06:35:56;;;;;;;18.13;9.35;;;;;;;3.91;76.63;97089.97;5065546;28;20048;-76
2021/10/11 06:38:22;;;;;;;18.60;10.05;;;;;;;3.98;76.82;97075.47;5066435;28;20507;-75
2021/10/11 06:40:51;;;;;;;17.17;9.98;;;;;;;4.03;76.56;97072.81;5066540;28;20047;-75
2021/10/11 06:43:19;;;;;;;21.20;10.38;;;;;;;4.15;77.45;97082.31;5065891;28;20495;-76
2021/10/11 06:45:46;;;;;;;16.60;10.65;;;;;;;4.31;77.26;97085.13;5067006;28;20416;-75
2021/10/11 06:48:16;;;;;;;18.63;10.40;;;;;;;4.45;77.17;97086.31;5065596;28;20538;-75
2021/10/11 06:50:42;;;;;;;18.75;10.43;;;;;;;4.57;76.54;97099.59;5070967;28;20044;-75
2021/10/11 06:53:09;;;;;;;13.52;8.35;;;;;;;4.66;76.61;97093.44;5069776;28;20695;-75
2021/10/11 06:55:36;;;;;;;17.10;10.05;;;;;;;4.75;76.22;97096.47;5071799;28;20048;-75
2021/10/11 06:58:02;;;;;;;17.58;10.55;;;;;;;4.80;75.63;97103.75;5069666;28;20055;-75
2021/10/11 07:00:29;;;;;;;16.73;9.75;;;;;;;4.87;75.63;97094.34;5071546;28;20048;-76
2021/10/11 07:02:56;;;;;;;19.42;9.43;;;;;;;4.97;75.00;97097.09;5070375;28;20044;-75
2021/10/11 07:05:23;;;;;;;14.00;8.68;;;;;;;5.07;74.87;97090.13;5052172;28;20065;-76
2021/10/11 07:07:49;;;;;;;15.93;8.95;;;;;;;5.17;74.56;97087.44;5050847;28;20045;-75
2021/10/11 07:10:16;;;;;;;13.07;8.52;;;;;;;5.24;74.11;97077.19;5050534;28;20055;-75
2021/10/11 07:12:42;;;;;;;15.20;8.73;;;;;;;5.31;74.37;97085.03;5050566;28;20407;-75
2021/10/11 07:15:10;;;;;;;17.15;8.75;;;;;;;5.45;74.60;97084.28;5049967;28;20052;-75
2021/10/11 07:17:37;;;;;;;19.85;9.77;;;;;;;5.49;73.95;97079.97;5050991;28;20045;-75
2021/10/11 07:20:06;;;;;;;15.25;8.82;;;;;;;5.61;74.17;97089.69;5049395;28;20079;-74
2021/10/11 07:22:33;;;;;;;16.83;8.32;;;;;;;5.62;73.23;97083.22;5051351;28;20051;-76
2021/10/11 07:24:59;;;;;;;15.15;8.60;;;;;;;5.61;73.57;97087.81;5050034;28;20049;-74
2021/10/11 07:27:26;;;;;;;14.40;8.20;;;;;;;5.63;73.67;97095.63;5051857;28;20076;-75
2021/10/11 07:29:52;;;;;;;13.77;8.18;;;;;;;5.58;74.58;97093.75;5070023;28;20056;-75
2021/10/11 07:32:19;;;;;;;14.77;8.93;;;;;;;5.60;73.90;97109.69;5069853;28;20056;-75
2021/10/11 07:34:45;;;;;;;12.75;8.02;;;;;;;5.60;74.09;97117.81;5069662;28;20795;-75
2021/10/11 07:37:13;;;;;;;14.63;9.23;;;;;;;5.75;74.99;97115.13;5069429;28;20427;-75
2021/10/11 07:39:40;;;;;;;20.08;9.60;;;;;;;5.91;74.56;97107.84;5070735;28;20055;-74
2021/10/11 07:42:06;;;;;;;15.07;9.02;;;;;;;6.10;75.57;97108.13;5068729;28;20056;-74
2021/10/11 07:44:33;;;;;;;16.15;8.27;;;;;;;6.23;74.54;97111.13;5070829;28;20063;-75
2021/10/11 07:46:59;;;;;;;20.42;8.90;;;;;;;6.29;74.02;97109.22;5068938;28;20056;-75
2021/10/11 07:49:26;;;;;;;13.55;7.75;;;;;;;6.38;74.37;97113.00;5069857;28;20045;-74
2021/10/11 07:51:52;;;;;;;16.52;8.40;;;;;;;6.50;73.24;97099.19;5069250;28;20492;-75
2021/10/11 07:54:20;;;;;;;12.23;7.93;;;;;;;6.72;72.70;97112.41;5069993;28;20055;-75
2021/10/11 07:56:47;;;;;;;13.93;7.63;;;;;;;7.02;71.74;97117.72;5069018;28;20397;-76
2021/10/11 07:59:13;;;;;;;14.80;8.02;;;;;;;7.73;71.80;97115.78;5068804;28;20687;-74
2021/10/11 08:01:40;;;;;;;12.90;7.80;;;;;;;8.57;69.06;97108.34;5068706;28;20048;-75
2021/10/11 08:04:06;;;;;;;13.30;8.07;;;;;;;8.98;66.76;97107.88;5069668;28;20048;-75
2021/10/11 08:06:34;;;;;;;14.05;8.13;;;;;;;9.08;64.20;97102.34;5070173;28;20050;-75
2021/10/11 08:09:00;;;;;;;13.25;7.32;;;;;;;9.13;64.60;97105.00;5069716;28;20048;-75
2021/10/11 08:11:28;;;;;;;13.25;8.00;;;;;;;9.12;64.81;97104.19;5070175;28;20049;-75
2021/10/11 08:13:55;;;;;;;14.82;7.13;;;;;;;9.04;63.82;97107.56;5069081;28;20055;-75
2021/10/11 08:16:21;;;;;;;13.63;7.60;;;;;;;8.98;65.61;97102.47;5069919;28;20082;-75
2021/10/11 08:18:48;;;;;;;14.45;9.07;;;;;;;8.99;65.19;97099.47;5069162;28;20056;-75
2021/10/11 08:21:14;;;;;;;22.58;10.55;;;;;;;9.02;64.78;97098.88;5069655;28;20048;-76
2021/10/11 08:23:41;;;;;;;15.43;8.38;;;;;;;9.05;63.91;97103.75;5069638;28;20044;-75
2021/10/11 08:26:09;;;;;;;20.35;9.40;;;;;;;9.15;64.60;97098.19;5068709;28;20131;-75
2021/10/11 08:28:38;;;;;;;14.18;8.50;;;;;;;9.22;64.94;97080.72;5069742;28;20044;-75
2021/10/11 08:31:05;;;;;;;15.18;9.05;;;;;;;9.29;64.68;97092.03;5068235;28;20615;-75
2021/10/11 08:33:32;;;;;;;13.27;8.60;;;;;;;9.15;63.84;97081.88;5069876;28;20139;-75
2021/10/11 08:36:01;;;;;;;15.45;8.88;;;;;;;9.09;65.93;97088.50;5067736;28;20048;-76
2021/10/11 08:38:27;;;;;;;14.52;9.02;;;;;;;8.96;65.86;97094.59;5069635;28;20074;-75
2021/10/11 08:40:54;;;;;;;15.18;9.18;;;;;;;8.96;66.25;97089.16;5068137;28;20056;-75
2021/10/11 08:43:22;;;;;;;16.38;8.88;;;;;;;9.37;64.81;97094.09;5068722;28;20048;-75
2021/10/11 08:45:51;;;;;;;18.08;9.73;;;;;;;9.73;65.07;97097.16;5069202;28;20059;-75
2021/10/11 08:48:18;;;;;;;15.65;9.13;;;;;;;9.88;64.83;97093.41;5067879;28;20347;-76
2021/10/11 08:50:45;;;;;;;14.85;9.23;;;;;;;9.90;64.25;97091.19;5069024;28;20402;-75
2021/10/11 08:53:11;;;;;;;15.80;10.25;;;;;;;9.98;65.14;97095.16;5069137;28;20049;-76
2021/10/11 08:55:39;;;;;;;15.18;9.45;;;;;;;9.92;64.31;97099.88;5069606;28;20049;-76
2021/10/11 08:58:07;;;;;;;15.25;9.63;;;;;;;9.96;65.96;97098.16;5067402;28;20049;-75
2021/10/11 09:00:36;;;;;;;17.35;10.02;;;;;;;10.01;63.89;97095.34;5069655;28;20710;-77
2021/10/11 09:03:05;;;;;;;21.23;10.98;;;;;;;10.08;63.86;97103.97;5067792;28;20587;-77
2021/10/11 09:05:33;;;;;;;16.45;9.68;;;;;;;10.18;64.29;97098.38;5069565;28;20049;-75
2021/10/11 09:08:04;;;;;;;17.02;10.02;;;;;;;10.27;63.83;97089.53;5068671;28;20044;-76
2021/10/11 09:10:33;;;;;;;19.13;10.50;;;;;;;10.25;63.68;97091.75;5068859;28;20051;-75
2021/10/11 09:13:00;;;;;;;16.73;10.90;;;;;;;10.40;63.56;97099.69;5068278;28;20052;-75
2021/10/11 09:15:30;;;;;;;18.30;11.02;;;;;;;10.52;63.93;97091.81;5067919;28;20049;-77
2021/10/11 09:18:00;;;;;;;25.08;10.77;;;;;;;10.43;62.93;97096.34;5068930;28;20045;-76
2021/10/11 09:20:29;;;;;;;16.20;10.07;;;;;;;10.51;64.21;97101.09;5068833;28;20488;-76
2021/10/11 09:22:58;;;;;;;20.02;11.27;;;;;;;10.52;62.98;97107.38;5068842;28;20052;-75
2021/10/11 09:25:33;;;;;;;19.95;11.02;;;;;;;10.53;63.56;97104.34;5068406;28;20045;-76
2021/10/11 09:28:00;;;;;;;21.35;11.02;;;;;;;10.54;63.28;97100.50;5068326;28;20064;-76
2021/10/11 09:30:28;;;;;;;16.92;10.60;;;;;;;10.59;63.38;97099.59;5067897;28;20071;-76
2021/10/11 09:33:07;;;;;;;20.95;12.25;;;;;;;10.51;63.77;97103.84;5067416;28;20060;-75
2021/10/11 09:35:36;;;;;;;16.58;11.15;;;;;;;10.60;64.17;97102.03;5068570;28;20079;-75
2021/10/11 09:38:02;;;;;;;16.70;11.40;;;;;;;10.72;64.30;97107.00;5067105;28;20446;-75
2021/10/11 09:40:40;;;;;;;19.85;12.00;;;;;;;10.84;63.03;97101.88;5068747;28;20499;-75
2021/10/11 09:43:12;;;;;;;20.75;10.95;;;;;;;10.93;63.02;97104.72;5067418;28;20137;-77
2021/10/11 09:45:39;;;;;;;23.97;12.03;;;;;;;11.06;62.41;97094.91;5068638;28;20044;-76
2021/10/11 09:48:07;;;;;;;17.55;11.63;;;;;;;11.19;61.55;97094.13;5067369;28;20052;-75
2021/10/11 09:50:35;;;;;;;20.90;12.85;;;;;;;11.34;61.10;97098.44;5067898;28;20480;-76
2021/10/11 09:53:02;;;;;;;20.35;11.80;;;;;;;11.40;60.59;97100.75;5068232;28;20060;-71
2021/10/11 09:55:29;;;;;;;19.00;12.50;;;;;;;11.42;60.02;97097.72;5067808;28;20064;-77
2021/10/11 09:57:57;;;;;;;20.67;11.65;;;;;;;11.52;60.15;97099.44;5067105;28;20048;-76
2021/10/11 10:00:23;;;;;;;20.05;12.07;;;;;;;11.67;60.65;97094.44;5066642;28;20044;-77
2021/10/11 10:02:51;;;;;;;27.85;18.63;;;;;;;11.83;59.84;97091.41;5067511;28;20052;-75
2021/10/11 10:05:23;;;;;;;24.80;13.13;;;;;;;11.94;58.83;97090.84;5066625;28;20041;-74
2021/10/11 10:07:53;;;;;;;23.88;12.27;;;;;;;11.97;57.64;97081.25;5068174;28;20060;-75
2021/10/11 10:10:23;;;;;;;20.02;12.75;;;;;;;11.97;58.68;97078.53;5066244;28;20051;-75
2021/10/11 10:12:52;;;;;;;21.00;12.48;;;;;;;11.97;58.92;97075.81;5067598;28;20048;-75
2021/10/11 10:15:31;;;;;;;23.75;11.75;;;;;;;12.02;59.86;97081.13;5067031;28;20147;-76
2021/10/11 10:18:06;;;;;;;21.95;12.88;;;;;;;12.16;58.97;97076.44;5066829;28;20118;-75
2021/10/11 10:20:34;;;;;;;20.52;12.07;;;;;;;12.22;58.43;97077.13;5067097;28;20074;-76
2021/10/11 10:23:02;;;;;;;23.33;12.50;;;;;;;12.30;58.31;97072.81;5066765;28;20052;-76
2021/10/11 10:25:29;;;;;;;20.27;12.25;;;;;;;12.27;56.52;97064.13;5067048;28;20063;-76
2021/10/11 10:28:10;;;;;;;21.25;12.70;;;;;;;12.25;55.96;97066.34;5066855;28;20149;-76
2021/10/11 10:30:37;;;;;;;19.17;11.50;;;;;;;12.19;55.28;97073.06;5067297;28;20070;-76
2021/10/11 10:33:05;;;;;;;20.63;11.90;;;;;;;12.17;54.66;97064.38;5066971;28;20060;-75
2021/10/11 10:35:33;;;;;;;17.38;11.50;;;;;;;12.13;56.40;97068.84;5066526;28;20055;-76
2021/10/11 10:38:02;;;;;;;22.23;11.35;;;;;;;12.08;54.66;97055.31;5066920;28;20041;-76
2021/10/11 10:40:30;;;;;;;23.50;11.75;;;;;;;12.09;55.66;97062.41;5065778;28;20044;-76
2021/10/11 10:43:07;;;;;;;18.92;10.88;;;;;;;12.15;54.21;97052.16;5067526;28;20053;-76
2021/10/11 10:45:36;;;;;;;17.48;11.15;;;;;;;12.14;54.15;97039.63;5066274;28;20544;-76
2021/10/11 10:48:03;;;;;;;17.50;11.00;;;;;;;12.22;54.43;97038.88;5066790;28;20503;-75
2021/10/11 10:50:33;;;;;;;20.25;11.48;;;;;;;12.31;55.22;97036.19;5066526;28;20503;-76
2021/10/11 10:53:03;;;;;;;16.73;10.18;;;;;;;12.28;54.74;97032.97;5066802;28;20048;-76
2021/10/11 10:55:29;;;;;;;18.33;11.15;;;;;;;12.35;54.33;97031.72;5066591;28;20045;-76
2021/10/11 10:58:01;;;;;;;18.38;10.70;;;;;;;12.37;54.42;97035.78;5066039;28;20045;-76
2021/10/11 11:00:27;;;;;;;19.52;11.93;;;;;;;12.46;54.13;97033.88;5066857;28;20078;-76
2021/10/11 11:02:54;;;;;;;17.13;10.25;;;;;;;12.52;53.76;97029.06;5066031;28;20051;-76
2021/10/11 11:05:23;;;;;;;16.00;9.95;;;;;;;12.55;52.71;97025.72;5066804;28;20044;-77
2021/10/11 11:07:52;;;;;;;20.73;11.18;;;;;;;12.53;51.94;97027.97;5066578;28;20083;-76
2021/10/11 11:10:22;;;;;;;16.13;9.75;;;;;;;12.49;53.27;97025.06;5066439;28;20674;-76
2021/10/11 11:12:53;;;;;;;16.02;9.15;;;;;;;12.51;52.70;97024.75;5067076;28;20079;-76
2021/10/11 11:15:25;;;;;;;13.50;8.75;;;;;;;12.65;54.17;97014.53;5066395;28;20045;-76
2021/10/11 11:17:52;;;;;;;14.52;9.27;;;;;;;12.56;50.94;97016.41;5066648;28;20059;-76
2021/10/11 11:20:23;;;;;;;17.75;8.90;;;;;;;12.59;52.44;97010.31;5055179;28;20535;-76
2021/10/11 11:22:52;;;;;;;15.52;9.10;;;;;;;12.62;51.59;97004.22;5047772;28;20049;-76
2021/10/11 11:25:27;;;;;;;14.70;8.65;;;;;;;12.68;51.88;96994.75;5046085;28;20057;-76